createdAt,value
2023-05-08T00:01:13.015Z,98161.19
2023-05-08T00:03:40.119Z,98165.59
2023-05-08T00:06:07.502Z,98161.38
2023-05-08T00:08:34.581Z,98167.44
2023-05-08T00:11:01.673Z,98165.97
2023-05-08T00:13:29.177Z,98165.38
2023-05-08T00:15:56.339Z,98158.94
2023-05-08T00:18:23.493Z,98169.03
2023-05-08T00:20:50.649Z,98173.47
2023-05-08T00:23:17.749Z,98173.91
2023-05-08T00:25:44.876Z,98167.41
2023-05-08T00:28:11.963Z,98167.31
2023-05-08T00:30:39.950Z,98162.22
2023-05-08T00:33:07.065Z,98175.06
2023-05-08T00:35:34.277Z,98163.31
2023-05-08T00:38:01.695Z,98168.84
2023-05-08T00:40:28.710Z,98164.81
2023-05-08T00:42:55.944Z,98173.13
2023-05-08T00:45:23.206Z,98168.72
2023-05-08T00:47:51.230Z,98172.03
2023-05-08T00:50:18.986Z,98172.03
2023-05-08T00:52:46.764Z,98168.13
2023-05-08T00:55:14.170Z,98172.03
2023-05-08T00:57:41.380Z,98172.56
2023-05-08T01:00:09.819Z,98164.00
2023-05-08T01:02:37.621Z,98164.63
2023-05-08T01:05:06.036Z,98166.50
2023-05-08T01:07:33.173Z,98164.31
2023-05-08T01:10:00.477Z,98168.88
2023-05-08T01:12:48.786Z,98172.31
2023-05-08T01:15:52.152Z,98158.59
2023-05-08T01:18:35.569Z,98149.75
2023-05-08T01:21:28.505Z,98147.38
2023-05-08T01:24:43.624Z,98148.44
2023-05-08T01:27:16.643Z,98144.66
2023-05-08T01:29:59.207Z,98134.25
2023-05-08T01:32:40.471Z,98138.19
2023-05-08T01:35:10.929Z,98135.91
2023-05-08T01:37:47.182Z,98136.19
2023-05-08T01:40:23.772Z,98133.66
2023-05-08T01:42:53.641Z,98137.75
2023-05-08T01:45:34.946Z,98146.16
2023-05-08T01:48:09.789Z,98143.03
2023-05-08T01:50:45.822Z,98135.56
2023-05-08T01:53:27.938Z,98142.25
2023-05-08T01:56:00.087Z,98139.53
2023-05-08T01:58:29.270Z,98144.06
2023-05-08T02:00:58.400Z,98142.34
2023-05-08T02:03:27.120Z,98142.66
2023-05-08T02:05:57.024Z,98142.03
2023-05-08T02:08:25.630Z,98142.59
2023-05-08T02:10:54.366Z,98137.00
2023-05-08T02:13:23.688Z,98136.19
2023-05-08T02:15:54.278Z,98136.34
2023-05-08T02:18:23.968Z,98130.31
2023-05-08T02:20:52.543Z,98136.69
2023-05-08T02:23:22.589Z,98138.97
2023-05-08T02:25:52.130Z,98138.44
2023-05-08T02:28:20.751Z,98142.72
2023-05-08T02:30:50.150Z,98137.69
2023-05-08T02:33:18.939Z,98138.78
2023-05-08T02:35:50.784Z,98133.69
2023-05-08T02:38:23.639Z,98140.63
2023-05-08T02:40:57.853Z,98128.88
2023-05-08T02:43:25.382Z,98126.47
2023-05-08T02:46:07.557Z,98130.75
2023-05-08T02:49:04.296Z,98132.97
2023-05-08T02:51:49.436Z,98131.06
2023-05-08T02:54:23.134Z,98128.59
2023-05-08T02:57:02.001Z,98119.00
2023-05-08T02:59:44.630Z,98115.59
2023-05-08T03:02:25.155Z,98120.50
2023-05-08T03:04:56.641Z,98125.31
2023-05-08T03:07:26.474Z,98128.75
2023-05-08T03:10:08.285Z,98129.63
2023-05-08T03:12:42.749Z,98134.75
2023-05-08T03:15:14.208Z,98137.19
2023-05-08T03:17:43.762Z,98134.38
2023-05-08T03:20:15.589Z,98137.78
2023-05-08T03:22:44.731Z,98147.09
2023-05-08T03:25:14.519Z,98148.22
2023-05-08T03:27:42.907Z,98146.16
2023-05-08T03:30:12.306Z,98148.41
2023-05-08T03:32:43.677Z,98155.56
2023-05-08T03:35:11.425Z,98146.84
2023-05-08T03:37:38.629Z,98147.28
2023-05-08T03:40:08.038Z,98146.06
2023-05-08T03:42:37.530Z,98153.53
2023-05-08T03:45:05.793Z,98151.22
2023-05-08T03:47:35.918Z,98149.75
2023-05-08T03:50:03.855Z,98150.47
2023-05-08T03:52:32.578Z,98155.22
2023-05-08T03:54:59.746Z,98150.25
2023-05-08T03:57:30.903Z,98154.34
2023-05-08T04:00:07.248Z,98160.88
2023-05-08T04:03:11.735Z,98165.06
2023-05-08T04:06:14.013Z,98165.44
2023-05-08T04:09:08.952Z,98156.09
2023-05-08T04:11:37.081Z,98168.50
2023-05-08T04:14:07.817Z,98159.31
2023-05-08T04:16:44.989Z,98165.13
2023-05-08T04:19:18.396Z,98162.66
2023-05-08T04:21:48.643Z,98161.41
2023-05-08T04:24:17.709Z,98163.00
2023-05-08T04:26:46.829Z,98159.25
2023-05-08T04:29:15.828Z,98147.41
2023-05-08T04:31:43.578Z,98149.25
2023-05-08T04:34:11.130Z,98150.13
2023-05-08T04:36:39.080Z,98152.13
2023-05-08T04:39:07.722Z,98152.91
2023-05-08T04:41:35.720Z,98163.84
2023-05-08T04:44:05.401Z,98160.53
2023-05-08T04:46:32.913Z,98161.50
2023-05-08T04:49:00.067Z,98156.19
2023-05-08T04:51:29.682Z,98160.88
2023-05-08T04:53:57.672Z,98160.88
2023-05-08T04:56:25.030Z,98164.88
2023-05-08T04:58:52.214Z,98163.19
2023-05-08T05:01:21.819Z,98168.78
2023-05-08T05:03:49.043Z,98180.03
2023-05-08T05:06:16.330Z,98166.03
2023-05-08T05:08:45.464Z,98165.19
2023-05-08T05:11:12.643Z,98161.56
2023-05-08T05:13:39.800Z,98159.06
2023-05-08T05:16:07.511Z,98151.97
2023-05-08T05:18:34.824Z,98157.75
2023-05-08T05:21:02.093Z,98151.31
2023-05-08T05:23:30.280Z,98154.44
2023-05-08T05:25:57.517Z,98158.75
2023-05-08T05:28:26.244Z,98157.75
2023-05-08T05:30:53.814Z,98159.34
2023-05-08T05:33:21.264Z,98166.34
2023-05-08T05:35:48.607Z,98163.22
2023-05-08T05:38:15.763Z,98163.81
2023-05-08T05:40:43.038Z,98163.84
2023-05-08T05:43:10.599Z,98166.00
2023-05-08T05:45:39.216Z,98161.88
2023-05-08T05:48:06.707Z,98159.41
2023-05-08T05:50:35.263Z,98163.88
2023-05-08T05:53:02.551Z,98162.88
2023-05-08T05:55:29.708Z,98162.53
2023-05-08T05:57:58.072Z,98155.03
2023-05-08T06:00:25.744Z,98159.88
2023-05-08T06:02:56.053Z,98169.28
2023-05-08T06:05:23.770Z,98173.69
2023-05-08T06:07:51.827Z,98178.50
2023-05-08T06:10:20.197Z,98182.66
2023-05-08T06:12:47.406Z,98176.53
2023-05-08T06:15:16.185Z,98178.22
2023-05-08T06:17:45.784Z,98182.44
2023-05-08T06:20:13.570Z,98184.88
2023-05-08T06:22:41.600Z,98176.94
2023-05-08T06:25:09.937Z,98180.63
2023-05-08T06:27:37.562Z,98175.75
2023-05-08T06:30:07.978Z,98174.88
2023-05-08T06:32:35.140Z,98174.84
2023-05-08T06:35:02.644Z,98175.91
2023-05-08T06:37:29.785Z,98173.53
2023-05-08T06:40:10.223Z,98182.91
2023-05-08T06:42:39.063Z,98177.69
2023-05-08T06:45:07.710Z,98179.16
2023-05-08T06:47:34.969Z,98183.53
2023-05-08T06:50:02.251Z,98175.38
2023-05-08T06:52:29.459Z,98181.09
2023-05-08T06:54:56.517Z,98176.16
2023-05-08T06:57:26.552Z,98182.75
2023-05-08T06:59:54.315Z,98179.28
2023-05-08T07:02:21.534Z,98167.88
2023-05-08T07:04:48.829Z,98165.75
2023-05-08T07:07:16.067Z,98166.38
2023-05-08T07:09:43.193Z,98167.38
2023-05-08T07:12:10.298Z,98162.91
2023-05-08T07:14:37.415Z,98160.50
2023-05-08T07:17:08.122Z,98156.59
2023-05-08T07:19:36.796Z,98166.16
2023-05-08T07:22:04.456Z,98167.97
2023-05-08T07:24:32.198Z,98164.03
2023-05-08T07:27:02.349Z,98172.72
2023-05-08T07:29:29.406Z,98165.09
2023-05-08T07:31:56.682Z,98170.34
2023-05-08T07:34:23.821Z,98179.22
2023-05-08T07:36:50.947Z,98176.00
2023-05-08T07:39:18.137Z,98180.53
2023-05-08T07:41:47.756Z,98186.88
2023-05-08T07:44:16.330Z,98182.94
2023-05-08T07:46:43.621Z,98185.84
2023-05-08T07:49:13.645Z,98186.66
2023-05-08T07:51:41.525Z,98190.34
2023-05-08T07:54:09.405Z,98187.56
2023-05-08T07:56:36.612Z,98179.19
2023-05-08T07:59:03.623Z,98183.41
2023-05-08T08:01:31.511Z,98176.25
2023-05-08T08:03:58.611Z,98173.13
2023-05-08T08:06:25.713Z,98169.03
2023-05-08T08:08:52.926Z,98164.78
2023-05-08T08:11:20.007Z,98168.47
2023-05-08T08:13:47.052Z,98170.19
2023-05-08T08:16:14.115Z,98172.84
2023-05-08T08:18:41.292Z,98170.25
2023-05-08T08:21:08.564Z,98168.19
2023-05-08T08:23:35.742Z,98159.56
2023-05-08T08:26:02.913Z,98156.50
2023-05-08T08:28:29.962Z,98158.75
2023-05-08T08:30:57.075Z,98150.81
2023-05-08T08:33:24.396Z,98144.53
2023-05-08T08:35:51.422Z,98146.41
2023-05-08T08:38:18.541Z,98148.94
2023-05-08T08:40:45.816Z,98151.91
2023-05-08T08:43:13.136Z,98156.50
2023-05-08T08:45:40.396Z,98149.34
2023-05-08T08:48:12.562Z,98147.97
2023-05-08T08:50:44.211Z,98151.34
2023-05-08T08:53:25.996Z,98159.88
2023-05-08T08:55:56.099Z,98156.56
2023-05-08T08:58:43.887Z,98146.38
2023-05-08T09:01:16.635Z,98150.44
2023-05-08T09:03:44.388Z,98137.03
2023-05-08T09:06:12.764Z,98135.59
2023-05-08T09:08:41.297Z,98127.28
2023-05-08T09:11:09.201Z,98125.38
2023-05-08T09:13:36.463Z,98127.69
2023-05-08T09:16:03.879Z,98132.16
2023-05-08T09:18:31.080Z,98146.25
2023-05-08T09:21:00.395Z,98141.41
2023-05-08T09:23:27.752Z,98152.47
2023-05-08T09:25:54.897Z,98150.78
2023-05-08T09:28:23.869Z,98150.09
2023-05-08T09:30:58.761Z,98143.75
2023-05-08T09:33:28.366Z,98141.75
2023-05-08T09:35:56.802Z,98152.38
2023-05-08T09:38:42.080Z,98147.50
2023-05-08T09:41:11.667Z,98151.03
2023-05-08T09:43:39.434Z,98150.16
2023-05-08T10:17:04.109Z,98142.19
2023-05-08T10:19:31.538Z,98141.97
2023-05-08T10:22:02.569Z,98138.41
2023-05-08T10:24:33.824Z,98137.22
2023-05-08T10:27:12.954Z,98135.59
2023-05-08T10:29:59.989Z,98128.50
2023-05-08T10:32:31.678Z,98133.38
2023-05-08T10:35:04.412Z,98130.81
2023-05-08T10:37:36.265Z,98125.75
2023-05-08T10:40:05.386Z,98131.78
2023-05-08T10:42:35.736Z,98132.59
2023-05-08T10:45:06.822Z,98123.78
2023-05-08T10:47:46.296Z,98131.38
2023-05-08T10:50:22.238Z,98134.00
2023-05-08T10:53:11.972Z,98130.97
2023-05-08T10:55:42.712Z,98133.22
2023-05-08T10:58:15.214Z,98140.97
2023-05-08T11:01:12.407Z,98140.34
2023-05-08T11:03:47.315Z,98128.06
2023-05-08T11:06:15.328Z,98133.75
2023-05-08T11:08:53.159Z,98132.50
2023-05-08T11:11:27.071Z,98128.31
2023-05-08T11:13:59.958Z,98139.44
2023-05-08T11:17:00.026Z,98143.19
2023-05-08T11:19:28.482Z,98145.84
2023-05-08T11:22:17.174Z,98137.88
2023-05-08T11:24:58.087Z,98139.25
2023-05-08T11:27:50.259Z,98150.63
2023-05-08T11:30:32.690Z,98146.75
2023-05-08T11:33:05.884Z,98147.09
2023-05-08T11:35:57.199Z,98144.44
2023-05-08T11:38:25.780Z,98148.31
2023-05-08T11:41:02.930Z,98143.53
2023-05-08T11:43:32.854Z,98145.59
2023-05-08T11:46:21.927Z,98137.63
2023-05-08T11:48:49.209Z,98139.19
2023-05-08T11:51:19.119Z,98140.13
2023-05-08T11:53:47.710Z,98148.47
2023-05-08T11:56:14.995Z,98135.94
2023-05-08T11:58:42.155Z,98141.16
2023-05-08T12:01:09.404Z,98142.81
2023-05-08T12:03:36.669Z,98134.91
2023-05-08T12:06:04.046Z,98145.53
2023-05-08T12:08:31.527Z,98140.66
2023-05-08T12:10:58.889Z,98137.59
2023-05-08T12:13:28.065Z,98151.38
2023-05-08T12:15:58.326Z,98143.94
2023-05-08T12:18:27.290Z,98135.34
2023-05-08T12:20:57.422Z,98137.53
2023-05-08T12:23:29.741Z,98135.88
2023-05-08T12:26:01.356Z,98129.47
2023-05-08T12:28:29.091Z,98123.34
2023-05-08T12:30:56.780Z,98129.69
2023-05-08T12:33:24.968Z,98118.44
2023-05-08T12:35:52.198Z,98123.25
2023-05-08T12:38:19.295Z,98127.75
2023-05-08T12:40:50.188Z,98128.16
2023-05-08T12:43:17.433Z,98128.97
2023-05-08T12:45:45.221Z,98125.38
2023-05-08T12:48:15.589Z,98129.69
2023-05-08T12:50:46.482Z,98131.34
2023-05-08T12:53:18.867Z,98116.34
2023-05-08T12:55:57.118Z,98123.28
2023-05-08T12:58:28.665Z,98131.22
2023-05-08T13:01:05.479Z,98132.78
2023-05-08T13:03:34.450Z,98124.69
2023-05-08T13:06:01.888Z,98133.03
2023-05-08T13:08:38.959Z,98126.53
2023-05-08T13:11:06.953Z,98127.16
2023-05-08T13:13:35.469Z,98132.03
2023-05-08T13:16:05.261Z,98128.13
2023-05-08T13:18:33.515Z,98128.78
2023-05-08T13:21:02.311Z,98131.75
2023-05-08T13:23:29.406Z,98131.06
2023-05-08T13:25:57.061Z,98132.75
2023-05-08T13:28:24.189Z,98141.84
2023-05-08T13:30:51.386Z,98142.78
2023-05-08T13:33:18.510Z,98144.25
2023-05-08T13:35:45.824Z,98155.97
2023-05-08T13:38:12.962Z,98159.38
2023-05-08T13:40:40.168Z,98155.56
2023-05-08T13:43:07.292Z,98165.38
2023-05-08T13:45:34.543Z,98150.31
2023-05-08T13:48:01.694Z,98161.84
2023-05-08T13:50:29.042Z,98152.41
2023-05-08T13:52:56.194Z,98159.91
2023-05-08T13:55:23.627Z,98156.91
2023-05-08T13:57:51.316Z,98165.00
2023-05-08T14:00:18.930Z,98162.69
2023-05-08T14:02:46.226Z,98155.78
2023-05-08T14:05:13.808Z,98163.69
2023-05-08T14:07:41.313Z,98166.81
2023-05-08T14:10:08.740Z,98164.94
2023-05-08T14:12:36.600Z,98172.50
2023-05-08T14:15:07.442Z,98171.13
2023-05-08T14:17:34.884Z,98174.09
2023-05-08T14:20:02.047Z,98166.06
2023-05-08T14:22:29.094Z,98163.38
2023-05-08T14:24:56.212Z,98170.06
2023-05-08T14:27:23.348Z,98161.22
2023-05-08T14:29:50.544Z,98163.19
2023-05-08T14:32:17.663Z,98165.97
2023-05-08T14:34:44.797Z,98169.31
2023-05-08T14:37:13.140Z,98166.94
2023-05-08T14:39:40.475Z,98177.06
2023-05-08T14:44:37.785Z,98182.63
2023-05-08T14:47:05.064Z,98191.00
2023-05-08T14:49:38.228Z,98193.06
2023-05-08T14:52:07.018Z,98187.50
2023-05-08T14:54:34.494Z,98189.72
2023-05-08T14:57:03.639Z,98199.38
2023-05-08T14:59:30.794Z,98201.44
2023-05-08T15:01:58.013Z,98191.78
2023-05-08T15:04:25.186Z,98189.78
2023-05-08T15:06:52.361Z,98188.50
2023-05-08T15:09:19.462Z,98185.31
2023-05-08T15:11:46.621Z,98187.44
2023-05-08T15:14:13.746Z,98177.34
2023-05-08T15:16:40.895Z,98177.59
2023-05-08T15:19:09.650Z,98165.63
2023-05-08T15:21:36.952Z,98171.78
2023-05-08T15:24:04.223Z,98160.47
2023-05-08T15:26:31.259Z,98165.69
2023-05-08T15:28:58.335Z,98159.19
2023-05-08T15:31:25.583Z,98164.28
2023-05-08T15:33:52.785Z,98166.25
2023-05-08T15:36:19.964Z,98176.13
2023-05-08T15:38:49.212Z,98181.69
2023-05-08T15:41:16.373Z,98191.34
2023-05-08T15:43:45.462Z,98183.50
2023-05-08T15:46:12.665Z,98194.69
2023-05-08T15:48:39.809Z,98207.16
2023-05-08T15:51:07.038Z,98202.53
2023-05-08T15:53:35.383Z,98199.91
2023-05-08T15:56:02.520Z,98213.25
2023-05-08T15:58:29.816Z,98209.75
2023-05-08T16:00:57.815Z,98220.47
2023-05-08T16:03:25.287Z,98219.22
2023-05-08T16:05:52.484Z,98232.31
2023-05-08T16:08:19.590Z,98234.34
2023-05-08T16:10:46.760Z,98230.91
2023-05-08T16:13:13.897Z,98237.81
2023-05-08T16:15:41.606Z,98231.25
2023-05-08T16:18:08.762Z,98232.31
2023-05-08T16:20:36.441Z,98228.59
2023-05-08T16:23:03.805Z,98236.59
2023-05-08T16:25:31.006Z,98240.19
2023-05-08T16:27:58.127Z,98232.31
2023-05-08T16:30:25.340Z,98236.59
2023-05-08T16:32:52.542Z,98229.81
2023-05-08T16:35:19.893Z,98232.56
2023-05-08T16:37:47.043Z,98238.28
2023-05-08T16:40:14.237Z,98232.50
2023-05-08T16:42:41.399Z,98244.88
2023-05-08T16:45:09.097Z,98243.22
2023-05-08T16:47:36.591Z,98246.75
2023-05-08T16:50:05.113Z,98256.28
2023-05-08T16:52:33.101Z,98256.72
2023-05-08T16:55:00.506Z,98267.66
2023-05-08T16:57:27.899Z,98280.38
2023-05-08T16:59:55.084Z,98271.13
2023-05-08T17:02:22.736Z,98271.19
2023-05-08T17:04:50.552Z,98267.84
2023-05-08T17:07:18.156Z,98271.41
2023-05-08T17:09:45.924Z,98271.13
2023-05-08T17:12:13.313Z,98274.34
2023-05-08T17:14:40.821Z,98273.38
2023-05-08T17:17:08.341Z,98270.47
2023-05-08T17:19:35.705Z,98274.75
2023-05-08T17:22:03.303Z,98277.13
2023-05-08T17:24:31.428Z,98277.38
2023-05-08T17:26:58.803Z,98271.81
2023-05-08T17:29:25.902Z,98273.22
2023-05-08T17:31:53.139Z,98282.78
2023-05-08T17:34:21.008Z,98281.53
2023-05-08T17:36:48.407Z,98287.34
2023-05-08T17:39:15.816Z,98294.28
2023-05-08T17:41:42.831Z,98290.69
2023-05-08T17:44:09.917Z,98301.75
2023-05-08T17:46:37.139Z,98298.56
2023-05-08T17:49:04.285Z,98301.44
2023-05-08T17:51:31.632Z,98305.06
2023-05-08T17:53:58.674Z,98312.69
2023-05-08T17:56:26.072Z,98302.81
2023-05-08T17:58:53.520Z,98312.00
2023-05-08T18:01:20.665Z,98310.81
2023-05-08T18:03:48.578Z,98306.41
2023-05-08T18:06:16.380Z,98307.19
2023-05-08T18:08:43.995Z,98312.78
2023-05-08T18:11:23.815Z,98317.22
2023-05-08T18:13:52.856Z,98319.69
2023-05-08T18:16:21.597Z,98319.53
2023-05-08T18:18:49.855Z,98327.13
2023-05-08T18:21:16.994Z,98320.53
2023-05-08T18:23:44.281Z,98332.41
2023-05-08T18:26:14.623Z,98336.13
2023-05-08T18:28:42.057Z,98341.91
2023-05-08T18:31:09.301Z,98343.91
2023-05-08T18:33:37.344Z,98346.03
2023-05-08T18:36:07.082Z,98345.34
2023-05-08T18:38:35.086Z,98343.47
2023-05-08T18:41:03.918Z,98341.66
2023-05-08T18:43:31.116Z,98345.97
2023-05-08T18:46:00.696Z,98344.72
2023-05-08T18:48:28.042Z,98346.78
2023-05-08T18:50:58.757Z,98350.03
2023-05-08T18:53:26.084Z,98353.16
2023-05-08T18:55:53.211Z,98355.63
2023-05-08T18:58:20.471Z,98356.19
2023-05-08T19:00:47.847Z,98357.84
2023-05-08T19:03:15.188Z,98361.16
2023-05-08T19:05:42.693Z,98357.41
2023-05-08T19:08:10.069Z,98364.44
2023-05-08T19:10:37.181Z,98368.38
2023-05-08T19:13:04.405Z,98365.94
2023-05-08T19:15:31.609Z,98368.09
2023-05-08T19:17:58.892Z,98370.53
2023-05-08T19:20:26.074Z,98363.44
2023-05-08T19:22:53.603Z,98366.09
2023-05-08T19:25:21.124Z,98363.00
2023-05-08T19:27:48.969Z,98370.16
2023-05-08T19:30:16.448Z,98359.34
2023-05-08T19:32:43.626Z,98367.94
2023-05-08T19:35:11.057Z,98364.13
2023-05-08T19:37:38.213Z,98367.81
2023-05-08T19:40:06.485Z,98370.25
2023-05-08T19:42:33.644Z,98373.19
2023-05-08T19:45:01.421Z,98377.50
2023-05-08T19:47:28.606Z,98377.91
2023-05-08T19:49:55.781Z,98375.06
2023-05-08T19:52:22.862Z,98377.25
2023-05-08T19:54:49.896Z,98386.97
2023-05-08T19:57:17.137Z,98380.88
2023-05-08T19:59:44.205Z,98382.28
2023-05-08T20:02:11.305Z,98384.09
2023-05-08T20:04:57.336Z,98390.56
2023-05-08T20:07:25.578Z,98385.75
2023-05-08T20:09:52.761Z,98398.88
2023-05-08T20:12:19.837Z,98392.09
2023-05-08T20:14:46.963Z,98398.06
2023-05-08T20:17:14.061Z,98398.41
2023-05-08T20:19:41.141Z,98395.22
2023-05-08T20:22:08.280Z,98394.63
2023-05-08T20:24:35.403Z,98395.00
2023-05-08T20:27:02.667Z,98393.25
2023-05-08T20:29:29.730Z,98397.38
2023-05-08T20:31:56.988Z,98400.59
2023-05-08T20:34:24.048Z,98401.16
2023-05-08T20:36:51.129Z,98404.06
2023-05-08T20:39:18.215Z,98407.38
2023-05-08T20:41:45.237Z,98404.28
2023-05-08T20:44:13.185Z,98407.84
2023-05-08T20:46:41.554Z,98404.97
2023-05-08T20:49:08.616Z,98398.34
2023-05-08T20:51:36.473Z,98403.59
2023-05-08T20:54:03.812Z,98401.78
2023-05-08T20:56:31.013Z,98409.75
2023-05-08T20:58:58.105Z,98409.66
2023-05-08T21:01:25.340Z,98398.06
2023-05-08T21:03:52.486Z,98404.88
2023-05-08T21:06:19.577Z,98400.84
2023-05-08T21:08:46.650Z,98407.84
2023-05-08T21:11:13.722Z,98407.59
2023-05-08T21:13:40.820Z,98412.28
2023-05-08T21:16:08.468Z,98407.84
2023-05-08T21:18:35.795Z,98403.59
2023-05-08T21:21:03.265Z,98413.47
2023-05-08T21:23:31.321Z,98415.13
2023-05-08T21:25:58.357Z,98408.69
2023-05-08T21:28:25.547Z,98415.13
2023-05-08T21:30:52.569Z,98418.22
2023-05-08T21:33:19.695Z,98422.50
2023-05-08T21:35:47.953Z,98420.13
2023-05-08T21:38:15.010Z,98419.88
2023-05-08T21:40:42.200Z,98423.69
2023-05-08T21:43:09.287Z,98421.56
2023-05-08T21:45:36.533Z,98420.69
2023-05-08T21:48:03.996Z,98421.78
2023-05-08T21:50:31.215Z,98417.50
2023-05-08T21:52:58.359Z,98415.94
2023-05-08T21:55:25.545Z,98418.06
2023-05-08T21:57:53.934Z,98421.78
2023-05-08T22:00:21.351Z,98420.97
2023-05-08T22:02:48.607Z,98421.56
2023-05-08T22:05:16.103Z,98418.34
2023-05-08T22:07:43.305Z,98411.31
2023-05-08T22:10:11.890Z,98417.03
2023-05-08T22:12:39.167Z,98413.22
2023-05-08T22:15:14.889Z,98412.91
2023-05-08T22:17:50.788Z,98413.34
2023-05-08T22:20:18.351Z,98409.06
2023-05-08T22:22:45.958Z,98408.09
2023-05-08T22:25:13.202Z,98415.84
2023-05-08T22:27:40.940Z,98416.81
2023-05-08T22:30:08.711Z,98415.72
2023-05-08T22:32:36.651Z,98417.25
2023-05-08T22:35:03.929Z,98420.13
2023-05-08T22:37:31.012Z,98419.31
2023-05-08T22:39:58.107Z,98419.44
2023-05-08T22:42:26.869Z,98416.81
2023-05-08T22:44:53.940Z,98419.66
2023-05-08T22:47:21.363Z,98410.84
2023-05-08T22:49:48.919Z,98412.28
2023-05-08T22:52:17.134Z,98408.22
2023-05-08T22:54:44.169Z,98412.16
2023-05-08T22:57:11.256Z,98402.53
2023-05-08T22:59:38.350Z,98392.03
2023-05-08T23:02:05.459Z,98374.53
2023-05-08T23:04:32.563Z,98369.91
2023-05-08T23:06:59.599Z,98372.50
2023-05-08T23:09:26.726Z,98377.06
2023-05-08T23:11:53.755Z,98365.34
2023-05-08T23:14:20.851Z,98369.25
2023-05-08T23:16:47.952Z,98365.69
2023-05-08T23:19:15.982Z,98370.34
2023-05-08T23:21:43.189Z,98361.81
2023-05-08T23:24:10.329Z,98357.63
2023-05-08T23:26:38.316Z,98358.94
2023-05-08T23:29:06.210Z,98356.56
2023-05-08T23:31:33.352Z,98352.53
2023-05-08T23:34:00.470Z,98345.84
2023-05-08T23:36:27.548Z,98343.25
2023-05-08T23:38:54.621Z,98344.56
2023-05-08T23:41:21.640Z,98345.88
2023-05-08T23:43:48.736Z,98347.44
2023-05-08T23:46:15.987Z,98345.44
2023-05-08T23:48:43.297Z,98345.88
2023-05-08T23:51:10.600Z,98338.16
2023-05-08T23:53:37.643Z,98345.44
2023-05-08T23:56:05.192Z,98335.41
2023-05-08T23:58:32.245Z,98327.69
